Time;durP1;ratioP1;P1;durP2;ratioP2;P2;SDS_P1;SDS_P2;PMS_P1;PMS_P2;Temp;Humidity;BMP_temperature;BMP_pressure;BME280_temperature;BME280_humidity;BME280_pressure;Samples;Min_cycle;Max_cycle;Signal;HPM_P1;HPM_P2
2022/03/06 00:01:02;;;;;;;17.00;11.15;;;;;;;;;;6137524;23;20067;-90
2022/03/06 00:03:58;;;;;;;18.42;11.95;;;;;;;;;;6137897;23;20072;-89
2022/03/06 00:06:28;;;;;;;18.35;11.52;;;;;;;;;;6186666;23;20071;-90
2022/03/06 00:08:54;;;;;;;15.38;10.82;;;;;;;;;;6163027;23;20028;-88
2022/03/06 00:11:20;;;;;;;15.20;11.40;;;;;;;;;;6163585;23;20125;-89
2022/03/06 00:13:54;;;;;;;15.05;10.60;;;;;;;;;;6162421;23;20451;-87
2022/03/06 00:16:20;;;;;;;12.35;10.15;;;;;;;;;;6162554;23;20049;-89
2022/03/06 00:18:52;;;;;;;17.52;11.45;;;;;;;;;;6138654;23;20013;-90
2022/03/06 00:21:21;;;;;;;21.30;11.45;;;;;;;;;;6163203;23;20048;-89
2022/03/06 00:23:49;;;;;;;16.02;10.73;;;;;;;;;;6142244;23;20317;-89
2022/03/06 00:26:15;;;;;;;17.40;10.75;;;;;;;;;;6144713;23;20020;-90
2022/03/06 00:28:44;;;;;;;17.33;11.05;;;;;;;;;;6168063;23;20458;-88
2022/03/06 00:31:11;;;;;;;15.07;10.63;;;;;;;;;;6168027;23;20520;-90
2022/03/06 00:33:37;;;;;;;16.50;10.63;;;;;;;;;;6168878;23;20039;-89
2022/03/06 00:36:03;;;;;;;16.48;10.30;;;;;;;;;;6168733;23;20016;-86
2022/03/06 00:38:29;;;;;;;14.55;10.45;;;;;;;;;;6168734;23;20040;-88
2022/03/06 00:40:56;;;;;;;16.25;9.93;;;;;;;;;;6162582;23;20021;-89
2022/03/06 00:43:26;;;;;;;15.60;9.57;;;;;;;;;;6163629;23;20021;-89
2022/03/06 00:49:32;;;;;;;12.23;9.13;;;1.80;99.90;;;;;;6039683;23;20075;-90
2022/03/06 00:55:08;;;;;;;14.88;10.00;;;;;;;;;;6192799;23;20108;-90
2022/03/06 00:57:48;;;;;;;12.65;8.80;;;;;;;;;;6139371;23;20477;-90
2022/03/06 01:00:40;;;;;;;;;;;;;;;;;;;;;
2022/03/06 01:03:37;;;;;;;14.35;9.25;;;;;;;;;;6161198;23;20013;-90
2022/03/06 01:10:00;;;;;;;;;;;;;;;;;;;;;
2022/03/06 01:12:44;;;;;;;18.08;9.95;;;;;;;;;;6214097;23;20027;-91
2022/03/06 01:15:31;;;;;;;17.50;9.18;;;;;;;;;;6163599;23;20025;-91
2022/03/06 01:18:32;;;;;;;11.82;8.52;;;;;;;;;;6164155;23;20021;-90
2022/03/06 01:21:45;;;;;;;15.00;8.52;;;;;;;;;;6137298;23;20028;-91
2022/03/06 01:34:21;;;;;;;13.32;8.40;;;;;;;;;;6203464;22;20076;-91
2022/03/06 01:40:12;;;;;;;;;;;;;;;;;;;;;
2022/03/06 01:43:30;;;;;;;11.80;8.03;;;;;;;;;;6147032;23;20492;-91
2022/03/06 01:46:24;;;;;;;;;;;1.70;99.90;;;;;;6193349;23;20496;-91
2022/03/06 01:49:16;;;;;;;12.02;6.63;;;;;;;;;;6192048;23;19916;-90
2022/03/06 01:52:06;;;;;;;10.80;6.55;;;;;;;;;;6140451;23;20056;-90
2022/03/06 01:54:37;;;;;;;10.00;6.78;;;;;;;;;;6193577;23;20067;-91
2022/03/06 02:00:54;;;;;;;10.95;6.75;;;;;;;;;;6129742;23;20026;-91
2022/03/06 02:03:51;;;;;;;;;;;;;;;;;;;;;
2022/03/06 02:06:30;;;;;;;8.35;6.63;;;;;;;;;;6104130;23;20073;-91
2022/03/06 02:09:33;;;;;;;;;;;;;;;;;;;;;
2022/03/06 02:18:40;;;;;;;8.60;6.22;;;;;;;;;;6017789;23;20023;-92
2022/03/06 02:21:44;;;;;;;;;;;;;;;;;;;;;
2022/03/06 02:24:31;;;;;;;10.27;5.70;;;;;;;;;;5925143;23;20549;-91
2022/03/06 02:33:46;;;;;;;10.52;4.97;;;;;;;;;;6191724;22;20037;-91
2022/03/06 02:41:08;;;;;;;;;;;;;;;;;;;;;
2022/03/06 02:44:21;;;;;;;8.57;5.65;;;;;;;;;;6043468;23;20041;-90
2022/03/06 04:24:28;;;;;;;7.88;6.00;;;;;;;;;;6239129;22;20028;-91
2022/03/06 04:28:08;;;;;;;;;;;;;;;;;;;;;
2022/03/06 04:46:35;;;;;;;8.55;5.97;;;;;;;;;;6219544;23;20027;-92
2022/03/06 04:49:18;;;;;;;12.73;6.10;;;;;;;;;;6149390;23;20029;-91
2022/03/06 05:01:41;;;;;;;;;;;;;;;;;;;;;
2022/03/06 05:42:30;;;;;;;;;;;;;;;;;;;;;
2022/03/06 05:45:20;;;;;;;9.13;5.13;;;;;;;;;;6188499;23;20025;-91
2022/03/06 05:50:31;;;;;;;;;;;;;;;;;;;;;
2022/03/06 05:53:35;;;;;;;12.25;4.75;;;;;;;;;;6187959;23;20025;-91
2022/03/06 05:56:12;;;;;;;22.20;5.10;;;;;;;;;;6138396;23;20049;-90
2022/03/06 05:58:55;;;;;;;5.95;4.88;;;;;;;;;;6138704;23;20023;-90
2022/03/06 06:01:29;;;;;;;7.97;4.95;;;;;;;;;;6128169;23;20010;-90
2022/03/06 06:04:01;;;;;;;10.10;5.82;;;;;;;;;;6103496;23;20022;-90
2022/03/06 06:13:29;;;;;;;;;;;0.90;99.90;;;;;;5903074;24;20029;-90
2022/03/06 06:16:15;;;;;;;4.05;3.63;;;;;;;;;;5902058;24;19923;-90
2022/03/06 06:19:37;;;;;;;5.45;3.78;;;;;;;;;;5847802;24;20031;-91
2022/03/06 06:26:23;;;;;;;6.13;3.45;;;;;;;;;;5875615;24;20025;-91
2022/03/06 06:43:55;;;;;;;3.70;2.63;;;;;;;;;;6187730;23;20028;-90
2022/03/06 06:46:39;;;;;;;6.18;3.33;;;;;;;;;;6099160;23;20019;-90
2022/03/06 06:49:49;;;;;;;4.00;3.25;;;;;;;;;;6012515;23;20032;-90
2022/03/06 06:52:22;;;;;;;16.70;4.18;;;;;;;;;;6111201;23;20443;-90
2022/03/06 06:54:48;;;;;;;4.32;2.63;;;;;;;;;;6168236;23;20028;-90
2022/03/06 06:57:14;;;;;;;5.63;3.10;;;;;;;;;;6191916;23;20078;-91
2022/03/06 06:59:40;;;;;;;3.33;2.90;;;;;;;;;;6167618;23;20016;-91
2022/03/06 07:02:06;;;;;;;2.95;2.63;;;;;;;;;;6167402;23;20477;-90
2022/03/06 07:04:32;;;;;;;4.25;2.30;;;;;;;;;;6167090;23;20017;-90
2022/03/06 07:06:58;;;;;;;2.47;2.28;;;;;;;;;;6167041;23;20020;-89
2022/03/06 07:09:24;;;;;;;2.55;2.35;;;;;;;;;;6166934;23;20020;-89
2022/03/06 07:11:50;;;;;;;2.50;2.30;;;;;;;;;;6166835;23;20086;-90
2022/03/06 07:14:16;;;;;;;3.72;2.67;;;;;;;;;;6192054;23;20017;-90
2022/03/06 07:16:45;;;;;;;3.13;2.47;;;;;;;;;;6167356;23;20016;-90
2022/03/06 07:19:12;;;;;;;2.60;2.40;;;;;;;;;;6167115;23;20065;-90
2022/03/06 07:21:38;;;;;;;3.03;2.72;;;;;;;;;;6167672;23;20066;-90
2022/03/06 07:24:07;;;;;;;3.85;2.78;;;;;;;;;;6167412;23;20055;-90
2022/03/06 07:26:33;;;;;;;3.40;3.10;;;;;;;;;;6166735;23;20095;-90
2022/03/06 07:28:59;;;;;;;4.43;2.90;;;;;;;;;;6166790;23;20023;-90
2022/03/06 07:31:25;;;;;;;3.40;2.47;;;;;;;;;;6166046;23;20023;-89
2022/03/06 07:33:51;;;;;;;3.83;2.70;;;;;;;;;;6166170;23;20021;-90
2022/03/06 07:36:18;;;;;;;3.90;2.20;;;;;;;;;;6191604;23;20017;-90
2022/03/06 07:38:44;;;;;;;4.63;2.90;;;;;;;;;;6166814;23;20017;-90
2022/03/06 07:41:11;;;;;;;3.58;3.20;;;;;;;;;;6166501;23;20017;-90
2022/03/06 07:43:37;;;;;;;3.38;2.85;;;;;;;;;;6218176;23;20020;-90
2022/03/06 07:46:03;;;;;;;3.10;2.78;;;;;;;;;;6218012;23;20068;-90
2022/03/06 07:48:29;;;;;;;2.72;2.53;;;;;;;;;;6166561;23;20027;-90
2022/03/06 07:50:55;;;;;;;2.92;2.60;;;;;;;;;;6166147;23;20480;-89
2022/03/06 07:53:21;;;;;;;3.30;2.25;;;;;;;;;;6190400;23;20071;-90
2022/03/06 07:55:47;;;;;;;3.08;2.78;;;;;;;;;;6166065;23;20020;-90
2022/03/06 07:58:13;;;;;;;2.35;2.15;;;;;;;;;;6191133;23;20017;-90
2022/03/06 08:00:39;;;;;;;3.25;2.80;;;;;;;;;;6191151;23;20081;-90
2022/03/06 08:03:05;;;;;;;3.65;2.83;;;;;;;;;;6166591;23;20346;-85
2022/03/06 08:05:32;;;;;;;4.45;2.70;;;;;;;;;;6166461;23;20020;-88
2022/03/06 08:07:58;;;;;;;3.30;2.35;;;;;;;;;;6191429;23;20450;-86
2022/03/06 08:10:24;;;;;;;7.88;2.97;;;;;;;;;;6166293;23;20071;-88
2022/03/06 08:12:50;;;;;;;2.65;2.40;;;;;;;;;;6191850;23;20012;-89
2022/03/06 08:15:16;;;;;;;3.55;2.60;;;;;;;;;;6193428;23;20021;-84
2022/03/06 08:17:43;;;;;;;3.40;2.42;;;;;;;;;;6218925;23;20017;-86
2022/03/06 08:20:09;;;;;;;3.28;2.97;;;;;;;;;;6165744;23;20473;-88
2022/03/06 08:22:35;;;;;;;4.38;2.90;;;;;;;;;;6191347;23;20083;-90
2022/03/06 08:25:02;;;;;;;5.45;3.03;;;;;;;;;;6168355;23;20068;-89
2022/03/06 08:27:28;;;;;;;2.67;2.47;;;;;;;;;;6167024;23;20020;-87
2022/03/06 08:29:56;;;;;;;6.13;3.10;;;;;;;;;;6190461;23;20021;-90
2022/03/06 08:32:22;;;;;;;8.90;3.70;;;;;;;;;;6191474;23;20013;-89
2022/03/06 08:34:51;;;;;;;3.45;2.60;;;;;;;;;;6192329;23;20027;-91
2022/03/06 08:37:20;;;;;;;3.42;2.45;;;;;;;;;;6218507;23;20079;-88
2022/03/06 08:39:47;;;;;;;3.55;3.25;;;;;;;;;;6167246;23;20017;-88
2022/03/06 08:42:14;;;;;;;3.58;3.22;;;;;;;;;;6167154;23;20020;-90
2022/03/06 08:44:41;;;;;;;3.72;2.58;;;;;;;;;;6167869;23;20126;-88
2022/03/06 08:47:07;;;;;;;5.78;2.50;;;;;;;;;;6167964;23;20027;-91
2022/03/06 08:49:34;;;;;;;3.00;2.40;;;;;;;;;;6167734;23;20468;-89
2022/03/06 08:52:00;;;;;;;3.47;2.80;;;;;;;;;;6191590;23;20067;-89
2022/03/06 08:54:26;;;;;;;2.88;2.60;;;;;;;;;;6166915;23;20119;-84
2022/03/06 08:56:53;;;;;;;4.18;2.70;;;;;;;;;;6166562;23;20013;-91
2022/03/06 08:59:22;;;;;;;3.92;2.67;;;;;;;;;;6192080;23;20027;-85
2022/03/06 09:01:48;;;;;;;3.05;2.72;;;;;;;;;;6191624;23;20458;-86
2022/03/06 09:04:14;;;;;;;3.10;2.38;;;;;;;;;;6167871;23;20327;-87
2022/03/06 09:06:41;;;;;;;3.05;2.75;;;;;;;;;;6191819;23;20017;-86
2022/03/06 09:09:10;;;;;;;3.53;2.60;;;;;;;;;;6167065;23;20029;-92
2022/03/06 09:11:37;;;;;;;3.72;2.97;;;;;;;;;;6183391;23;20048;-89
2022/03/06 09:14:04;;;;;;;8.05;2.53;;;;;;;;;;6191897;23;20023;-89
2022/03/06 09:16:30;;;;;;;4.20;2.35;;;;;;;;;;6189673;23;20017;-89
2022/03/06 09:18:56;;;;;;;2.83;2.42;;;;;;;;;;6137552;23;20080;-88
2022/03/06 09:21:22;;;;;;;3.45;2.63;;;;;;;;;;6139088;23;20017;-86
2022/03/06 09:23:49;;;;;;;3.17;2.85;;;;;;;;;;6140219;23;20017;-90
2022/03/06 09:26:15;;;;;;;3.72;3.00;;;;;;;;;;6139607;23;20100;-90
2022/03/06 09:28:44;;;;;;;3.15;2.85;;;;;;;;;;6164069;23;20023;-91
2022/03/06 09:31:22;;;;;;;3.30;2.60;;;;;;;;;;6193273;23;20025;-88
2022/03/06 09:34:43;;;;;;;8.77;3.15;;;;;;;;;;6107413;23;20021;-91
2022/03/06 09:40:19;;;;;;;4.45;2.90;;;;;;;;;;6196663;23;20027;-91
2022/03/06 09:42:51;;;;;;;4.25;2.67;;;;;;;;;;6131252;23;20021;-90
2022/03/06 09:45:23;;;;;;;5.95;3.03;;;;;;;;;;6145000;23;20017;-90
2022/03/06 09:48:00;;;;;;;2.90;2.28;;;;;;;;;;6164381;23;20446;-91
2022/03/06 09:50:26;;;;;;;4.32;2.83;;;;;;;;;;6163320;23;20021;-89
2022/03/06 09:52:52;;;;;;;3.10;2.42;;;;;;;;;;6188131;23;20021;-90
2022/03/06 09:55:18;;;;;;;4.20;2.60;;;;;;;;;;6164406;23;20021;-89
2022/03/06 09:57:58;;;;;;;4.85;2.80;;;;;;;;;;6163793;23;20320;-89
2022/03/06 10:00:33;;;;;;;3.70;2.38;;;;;;;;;;6164658;23;20020;-89
2022/03/06 10:03:00;;;;;;;3.17;2.88;;;;;;;;;;6163662;23;20040;-89
2022/03/06 10:05:28;;;;;;;3.20;2.85;;;;;;;;;;6163766;23;20351;-91
2022/03/06 10:08:13;;;;;;;3.08;2.53;;;;;;;;;;6190104;23;20048;-90
2022/03/06 10:10:46;;;;;;;20.95;3.75;;;;;;;;;;6190706;23;20021;-91
2022/03/06 11:33:07;;;;;;;4.78;3.35;;;;;;;;;;6208857;22;20095;-94
2022/03/06 11:35:36;;;;;;;6.72;3.03;;;;;;;;;;6171309;23;20028;-94
2022/03/06 11:38:03;;;;;;;3.15;2.85;;;;;;;;;;6168817;23;20016;-94
2022/03/06 11:40:37;;;;;;;3.42;2.95;;;;;;;;;;6169024;23;20021;-94
2022/03/06 11:43:04;;;;;;;3.50;3.10;;;;;;;;;;6168710;23;20020;-95
2022/03/06 11:45:43;;;;;;;4.05;2.78;;;;;;;;;;6170081;23;20019;-96
2022/03/06 11:48:10;;;;;;;3.55;2.97;;;;;;;;;;6169418;23;20342;-96
2022/03/06 11:50:37;;;;;;;3.58;3.28;;;;;;;;;;6168280;23;20016;-96
2022/03/06 11:53:23;;;;;;;4.90;3.05;;;;;;;;;;6167929;23;20027;-96
2022/03/06 11:55:49;;;;;;;4.00;2.50;;;;;;;;;;6168658;23;20434;-94
2022/03/06 11:58:40;;;;;;;7.63;2.88;;;;;;;;;;6169938;23;20027;-96
2022/03/06 12:01:08;;;;;;;4.75;2.60;;;;;;;;;;6167710;23;20048;-95
2022/03/06 12:03:47;;;;;;;2.88;2.63;;;;;;;;;;6168542;23;20073;-95
2022/03/06 12:06:21;;;;;;;4.10;2.92;;;;;;;;;;6168099;23;20436;-95
2022/03/06 12:08:47;;;;;;;4.82;2.83;;;;;;;;;;6165556;23;20017;-95
2022/03/06 12:11:14;;;;;;;3.88;3.10;;;;;;;;;;6167611;23;20347;-96
2022/03/06 12:13:40;;;;;;;4.18;2.50;;;;;;;;;;6167989;23;20017;-95
2022/03/06 12:16:08;;;;;;;5.93;2.40;;;;;;;;;;6168815;23;20092;-95
2022/03/06 12:18:38;;;;;;;3.33;2.55;;;;;;;;;;6167813;23;20446;-95
2022/03/06 12:21:20;;;;;;;5.25;2.20;;;;;;;;;;6167614;23;20458;-95
2022/03/06 12:23:46;;;;;;;6.13;2.30;;;;;;;;;;6167744;23;20024;-96
2022/03/06 12:26:12;;;;;;;2.38;1.90;;;;;;;;;;6168603;23;20015;-96
2022/03/06 12:28:40;;;;;;;6.05;2.58;;;;;;;;;;6167491;23;20147;-96
2022/03/06 12:31:39;;;;;;;6.10;2.58;;;6.10;99.90;;;;;;6169212;23;20100;-96
2022/03/06 12:34:46;;;;;;;5.60;2.88;;;;;;;;;;6162632;23;20017;-95
2022/03/06 12:37:23;;;;;;;3.03;2.53;;;;;;;;;;6074948;23;20018;-96
2022/03/06 12:39:58;;;;;;;5.57;3.10;;;;;;;;;;6051695;23;20018;-96
2022/03/06 12:42:28;;;;;;;8.32;2.67;;;;;;;;;;6050565;23;20062;-96
2022/03/06 12:44:59;;;;;;;5.93;2.90;;;;;;;;;;6051770;23;20494;-95
2022/03/06 12:47:32;;;;;;;7.38;2.30;;;;;;;;;;6050919;23;20069;-95
2022/03/06 12:49:59;;;;;;;2.70;2.15;;;;;;;;;;6051745;23;20022;-96
2022/03/06 12:52:29;;;;;;;7.80;2.72;;;;;;;;;;6051572;23;20014;-95
2022/03/06 12:54:56;;;;;;;4.95;2.30;;;;;;;;;;6051083;23;20022;-95
2022/03/06 12:57:23;;;;;;;7.78;2.05;;;;;;;;;;6052008;23;20101;-95
2022/03/06 12:59:52;;;;;;;2.65;2.22;;;;;;;;;;6052058;23;20018;-94
2022/03/06 13:02:22;;;;;;;3.17;2.45;;;;;;;;;;6051815;23;20019;-95
2022/03/06 13:04:53;;;;;;;5.35;2.30;;;;;;;;;;6052400;23;20065;-96
2022/03/06 13:07:24;;;;;;;2.90;2.50;;;;;;;;;;6080121;23;20024;-96
2022/03/06 13:10:02;;;;;;;7.03;2.47;;;;;;;;;;6164308;23;20024;-96
2022/03/06 13:12:28;;;;;;;4.00;2.63;;;;;;;;;;6167068;23;20028;-96
2022/03/06 13:15:00;;;;;;;3.80;2.53;;;;;;;;;;6166487;23;20013;-95
2022/03/06 13:17:27;;;;;;;2.53;2.17;;;;;;;;;;6166106;23;20025;-96
2022/03/06 13:19:57;;;;;;;2.83;2.45;;;;;;;;;;6165487;23;20104;-96
2022/03/06 13:22:25;;;;;;;3.10;2.60;;;;;;;;;;6167789;23;20017;-96
2022/03/06 13:24:54;;;;;;;6.63;2.58;;;;;;;;;;6169075;23;20021;-96
2022/03/06 13:27:21;;;;;;;3.85;2.55;;;;;;;;;;6166731;23;20020;-96
2022/03/06 13:30:01;;;;;;;2.88;2.13;;;;;;;;;;6165635;23;20037;-94
2022/03/06 13:32:28;;;;;;;2.63;2.17;;;;;;;;;;6165298;23;20021;-96
2022/03/06 13:34:55;;;;;;;5.25;2.35;;;;;;;;;;6169030;23;20020;-96
2022/03/06 13:37:33;;;;;;;4.15;2.20;;;;;;;;;;6171929;23;20032;-96
2022/03/06 13:39:59;;;;;;;5.95;2.65;;;;;;;;;;6171219;23;20023;-96
2022/03/06 13:42:35;;;;;;;2.50;2.30;;;;;;;;;;6174067;23;20459;-96
2022/03/06 18:06:16;;;;;;;6.07;3.50;;;;;;;;;;6208630;22;20028;-92
2022/03/06 18:08:43;;;;;;;3.80;3.38;;;;;;;;;;6170625;23;20025;-94
2022/03/06 18:11:10;;;;;;;6.50;4.00;;;;;;;;;;6169945;23;20017;-93
2022/03/06 18:13:39;;;;;;;6.78;3.75;;;;;;;;;;6169371;23;20021;-93
2022/03/06 18:16:06;;;;;;;7.88;3.45;;;;;;;;;;6169863;23;20019;-93
2022/03/06 18:18:34;;;;;;;10.63;3.88;;;;;;;;;;6169882;23;20078;-94
2022/03/06 18:21:04;;;;;;;6.13;3.63;;;;;;;;;;6169347;23;20024;-93
2022/03/06 18:23:33;;;;;;;10.00;3.55;;;;;;;;;;6169340;23;20354;-93
2022/03/06 18:26:00;;;;;;;7.80;4.13;;;;;;;;;;6169155;23;20106;-94
2022/03/06 18:28:26;;;;;;;6.30;3.47;;;;;;;;;;6169915;23;20448;-93
2022/03/06 18:31:28;;;;;;;4.50;3.67;;;5.20;99.90;;;;;;6168970;23;20024;-92
2022/03/06 18:33:54;;;;;;;3.47;2.97;;;;;;;;;;6169822;23;20021;-93
2022/03/06 18:36:23;;;;;;;13.77;3.67;;;;;;;;;;6170114;23;20016;-94
